createdAt,value
2019-03-24T00:01:41.974Z,7.02
2019-03-24T00:04:13.397Z,6.97
2019-03-24T00:06:44.688Z,6.89
2019-03-24T00:09:16.176Z,6.93
2019-03-24T00:11:47.447Z,6.90
2019-03-24T00:14:18.823Z,6.90
2019-03-24T00:16:50.354Z,6.86
2019-03-24T00:19:21.633Z,6.83
2019-03-24T00:21:53.112Z,6.86
2019-03-24T00:24:24.444Z,6.90
2019-03-24T00:26:56.115Z,6.88
2019-03-24T00:29:27.536Z,6.91
2019-03-24T00:31:59.038Z,6.85
2019-03-24T00:34:31.410Z,6.87
2019-03-24T00:37:02.843Z,6.84
2019-03-24T00:39:34.158Z,6.83
2019-03-24T00:42:05.916Z,6.81
2019-03-24T00:44:37.257Z,6.82
2019-03-24T00:47:08.769Z,6.82
2019-03-24T00:49:40.166Z,6.74
2019-03-24T00:52:11.557Z,6.75
2019-03-24T00:54:42.932Z,6.63
2019-03-24T00:57:14.266Z,6.58
2019-03-24T00:59:45.575Z,6.63
2019-03-24T01:02:17.048Z,6.65
2019-03-24T01:04:48.459Z,6.59
2019-03-24T01:07:19.951Z,6.55
2019-03-24T01:09:51.224Z,6.52
2019-03-24T01:12:22.659Z,6.51
2019-03-24T01:14:54.994Z,6.50
2019-03-24T01:17:26.564Z,6.45
2019-03-24T01:19:57.894Z,6.44
2019-03-24T01:22:29.549Z,6.45
2019-03-24T01:25:01.002Z,6.50
2019-03-24T01:27:32.435Z,6.42
2019-03-24T01:30:04.583Z,6.43
2019-03-24T01:32:35.948Z,6.43
2019-03-24T01:35:07.941Z,6.40
2019-03-24T01:37:39.367Z,6.30
2019-03-24T01:40:11.692Z,6.26
2019-03-24T01:42:43.420Z,6.29
2019-03-24T01:45:15.194Z,6.31
2019-03-24T01:47:46.625Z,6.18
2019-03-24T01:50:19.003Z,6.10
2019-03-24T01:52:50.327Z,6.13
2019-03-24T01:55:21.676Z,6.12
2019-03-24T01:57:53.040Z,6.16
2019-03-24T02:00:24.786Z,6.04
2019-03-24T02:02:55.924Z,6.05
2019-03-24T02:05:27.597Z,6.06
2019-03-24T02:07:59.151Z,6.07
2019-03-24T02:10:30.657Z,6.05
2019-03-24T02:13:01.932Z,5.98
2019-03-24T02:15:33.512Z,5.88
2019-03-24T02:18:04.938Z,5.86
2019-03-24T02:20:36.131Z,5.79
2019-03-24T02:23:07.477Z,5.74
2019-03-24T02:25:38.869Z,5.66
2019-03-24T02:28:10.281Z,5.61
2019-03-24T02:30:41.577Z,5.56
2019-03-24T02:33:13.171Z,5.56
2019-03-24T02:35:45.617Z,5.52
2019-03-24T02:38:17.478Z,5.51
2019-03-24T02:40:48.820Z,5.39
2019-03-24T02:43:20.497Z,5.34
2019-03-24T02:45:51.829Z,5.34
2019-03-24T02:48:23.404Z,5.33
2019-03-24T02:50:54.743Z,5.31
2019-03-24T02:53:26.117Z,5.35
2019-03-24T02:55:58.600Z,5.32
2019-03-24T02:58:29.942Z,5.27
2019-03-24T03:01:01.231Z,5.27
2019-03-24T03:03:32.536Z,5.23
2019-03-24T03:06:03.925Z,5.21
2019-03-24T03:08:35.234Z,5.23
2019-03-24T03:11:06.727Z,5.16
2019-03-24T03:13:38.039Z,5.22
2019-03-24T03:16:09.428Z,5.21
2019-03-24T03:18:40.813Z,5.16
2019-03-24T03:21:12.057Z,5.14
2019-03-24T03:23:43.471Z,5.07
2019-03-24T03:26:14.877Z,5.05
2019-03-24T03:28:46.897Z,5.04
2019-03-24T03:31:18.463Z,4.95
2019-03-24T03:33:49.808Z,4.91
2019-03-24T03:36:21.179Z,4.94
2019-03-24T03:38:52.698Z,4.91
2019-03-24T03:41:24.155Z,4.90
2019-03-24T03:43:55.530Z,4.86
2019-03-24T03:46:26.858Z,4.84
2019-03-24T03:48:59.717Z,4.75
2019-03-24T03:51:31.079Z,4.73
2019-03-24T03:54:02.668Z,4.67
2019-03-24T03:56:34.076Z,4.66
2019-03-24T03:59:05.576Z,4.65
2019-03-24T04:01:36.988Z,4.57
2019-03-24T04:04:08.269Z,4.54
2019-03-24T04:06:39.775Z,4.56
2019-03-24T04:09:11.183Z,4.52
2019-03-24T04:11:42.472Z,4.45
2019-03-24T04:14:13.651Z,4.35
2019-03-24T04:16:44.970Z,4.36
2019-03-24T04:19:16.260Z,4.38
2019-03-24T04:21:47.569Z,4.30
2019-03-24T04:24:19.035Z,4.25
2019-03-24T04:26:50.372Z,4.33
2019-03-24T04:29:21.790Z,4.35
2019-03-24T04:31:53.162Z,4.26
2019-03-24T04:34:24.556Z,4.22
2019-03-24T04:36:55.961Z,4.18
2019-03-24T04:39:27.502Z,4.15
2019-03-24T04:41:58.974Z,4.20
2019-03-24T04:44:30.465Z,4.19
2019-03-24T04:47:01.865Z,4.10
2019-03-24T04:49:33.341Z,4.07
2019-03-24T04:52:04.858Z,4.07
2019-03-24T04:54:36.175Z,4.05
2019-03-24T04:57:07.654Z,3.98
2019-03-24T04:59:39.082Z,4.05
2019-03-24T05:02:10.558Z,4.06
2019-03-24T05:04:41.866Z,4.02
2019-03-24T05:07:13.150Z,4.05
2019-03-24T05:09:45.016Z,4.10
2019-03-24T05:12:16.314Z,4.12
2019-03-24T05:14:47.516Z,4.10
2019-03-24T05:17:26.765Z,4.13
2019-03-24T05:19:51.959Z,4.16
2019-03-24T05:22:23.342Z,4.04
2019-03-24T05:24:54.650Z,3.93
2019-03-24T05:27:26.081Z,3.97
2019-03-24T05:29:58.312Z,3.98
2019-03-24T05:32:29.625Z,3.92
2019-03-24T05:35:01.024Z,3.77
2019-03-24T05:37:32.401Z,3.69
2019-03-24T05:40:04.308Z,3.65
2019-03-24T05:42:35.716Z,3.66
2019-03-24T05:45:07.683Z,3.63
2019-03-24T05:47:38.937Z,3.59
2019-03-24T05:50:11.637Z,3.58
2019-03-24T05:52:42.952Z,3.51
2019-03-24T05:55:14.649Z,3.54
2019-03-24T05:57:45.972Z,3.57
2019-03-24T06:00:17.628Z,3.64
2019-03-24T06:02:48.972Z,3.66
2019-03-24T06:05:20.317Z,3.71
2019-03-24T06:07:51.695Z,3.76
2019-03-24T06:10:23.007Z,3.84
2019-03-24T06:12:54.388Z,3.86
2019-03-24T06:15:25.712Z,3.85
2019-03-24T06:17:56.985Z,3.91
2019-03-24T06:20:28.307Z,3.97
2019-03-24T06:22:59.696Z,3.97
2019-03-24T06:25:30.990Z,3.96
2019-03-24T06:28:02.304Z,3.90
2019-03-24T06:30:33.793Z,3.86
2019-03-24T06:33:05.203Z,3.89
2019-03-24T06:35:36.480Z,4.00
2019-03-24T06:38:08.073Z,4.09
2019-03-24T06:40:39.406Z,4.10
2019-03-24T06:43:10.792Z,4.09
2019-03-24T06:45:42.190Z,4.13
2019-03-24T06:48:13.589Z,4.23
2019-03-24T06:50:44.886Z,4.34
2019-03-24T06:53:16.200Z,4.43
2019-03-24T06:55:47.577Z,4.52
2019-03-24T06:58:18.867Z,4.56
2019-03-24T07:00:50.277Z,4.61
2019-03-24T07:03:21.575Z,4.66
2019-03-24T07:05:53.587Z,4.74
2019-03-24T07:08:24.935Z,4.82
2019-03-24T07:10:56.238Z,4.95
2019-03-24T07:13:27.499Z,5.04
2019-03-24T07:15:58.892Z,5.14
2019-03-24T07:18:30.796Z,5.19
2019-03-24T07:21:02.187Z,5.30
2019-03-24T07:23:33.743Z,5.39
2019-03-24T07:26:05.101Z,5.47
2019-03-24T07:28:36.542Z,5.55
2019-03-24T07:31:07.903Z,5.66
2019-03-24T07:33:39.235Z,5.80
2019-03-24T07:36:10.633Z,5.93
2019-03-24T07:38:41.948Z,6.04
2019-03-24T07:41:13.293Z,6.15
2019-03-24T07:43:45.713Z,6.34
2019-03-24T07:46:17.208Z,6.52
2019-03-24T07:48:48.469Z,6.61
2019-03-24T07:51:19.841Z,6.69
2019-03-24T07:53:51.205Z,6.77
2019-03-24T07:56:22.648Z,7.15
2019-03-24T07:58:54.109Z,7.14
2019-03-24T08:01:25.400Z,7.17
2019-03-24T08:03:56.805Z,7.31
2019-03-24T08:06:28.199Z,7.25
2019-03-24T08:08:59.441Z,7.31
2019-03-24T08:11:30.847Z,7.48
2019-03-24T08:14:02.139Z,7.70
2019-03-24T08:16:33.444Z,7.81
2019-03-24T08:19:04.839Z,7.93
2019-03-24T08:21:36.240Z,8.05
2019-03-24T08:24:07.630Z,8.22
2019-03-24T08:26:39.020Z,8.52
2019-03-24T08:29:10.496Z,8.50
2019-03-24T08:31:41.837Z,8.35
2019-03-24T08:34:13.131Z,8.20
2019-03-24T08:36:45.637Z,8.24
2019-03-24T08:39:16.967Z,8.29
2019-03-24T08:41:48.484Z,8.42
2019-03-24T08:44:19.978Z,8.52
2019-03-24T08:46:51.448Z,8.74
2019-03-24T08:49:22.799Z,8.88
2019-03-24T08:51:54.117Z,8.84
2019-03-24T08:54:25.502Z,8.92
2019-03-24T08:56:56.895Z,9.08
2019-03-24T08:59:28.203Z,9.09
2019-03-24T09:01:59.495Z,9.20
2019-03-24T09:04:30.799Z,9.37
2019-03-24T09:07:02.405Z,9.41
2019-03-24T09:09:33.739Z,9.56
2019-03-24T09:12:05.236Z,9.59
2019-03-24T09:14:36.702Z,9.60
2019-03-24T09:17:08.013Z,9.79
2019-03-24T09:19:39.652Z,9.84
2019-03-24T09:22:11.001Z,9.88
2019-03-24T09:24:43.328Z,9.94
2019-03-24T09:27:15.697Z,10.01
2019-03-24T09:29:47.086Z,9.93
2019-03-24T09:32:18.494Z,9.92
2019-03-24T09:34:49.787Z,9.92
2019-03-24T09:37:21.369Z,10.09
2019-03-24T09:39:52.794Z,10.13
2019-03-24T09:42:24.490Z,10.28
2019-03-24T09:44:55.792Z,10.35
2019-03-24T09:47:27.295Z,10.35
2019-03-24T09:49:58.598Z,10.53
2019-03-24T09:52:30.004Z,10.60
2019-03-24T09:55:01.402Z,10.73
2019-03-24T09:57:32.765Z,10.77
2019-03-24T10:00:04.464Z,10.98
2019-03-24T10:02:35.956Z,11.11
2019-03-24T10:05:07.626Z,11.27
2019-03-24T10:07:39.061Z,11.31
2019-03-24T10:10:11.264Z,11.46
2019-03-24T10:12:43.601Z,11.46
2019-03-24T10:15:15.344Z,11.53
2019-03-24T10:17:46.704Z,11.70
2019-03-24T10:20:18.216Z,11.72
2019-03-24T10:22:49.966Z,11.70
2019-03-24T10:25:21.473Z,11.81
2019-03-24T10:27:52.769Z,11.72
2019-03-24T10:30:24.117Z,11.80
2019-03-24T10:32:55.491Z,12.07
2019-03-24T10:35:26.775Z,12.06
2019-03-24T10:37:58.265Z,12.19
2019-03-24T10:40:29.569Z,12.26
2019-03-24T10:43:01.111Z,12.36
2019-03-24T10:45:32.581Z,12.47
2019-03-24T10:48:04.052Z,12.49
2019-03-24T10:50:35.362Z,12.67
2019-03-24T10:53:06.767Z,12.87
2019-03-24T10:55:38.178Z,12.91
2019-03-24T10:58:09.646Z,12.96
2019-03-24T11:00:42.655Z,13.14
2019-03-24T11:03:14.210Z,13.15
2019-03-24T11:05:45.850Z,13.32
2019-03-24T11:08:17.273Z,13.34
2019-03-24T11:10:48.772Z,13.58
2019-03-24T11:13:20.156Z,13.55
2019-03-24T11:15:51.644Z,13.58
2019-03-24T11:18:23.027Z,13.69
2019-03-24T11:20:54.349Z,13.73
2019-03-24T11:23:25.660Z,13.71
2019-03-24T11:25:56.975Z,13.85
2019-03-24T11:28:28.239Z,13.99
2019-03-24T11:30:59.549Z,14.17
2019-03-24T11:33:30.845Z,14.24
2019-03-24T11:36:03.278Z,14.10
2019-03-24T11:38:35.276Z,14.37
2019-03-24T11:41:06.689Z,14.47
2019-03-24T11:43:38.296Z,14.60
2019-03-24T11:46:09.694Z,14.63
2019-03-24T11:48:41.117Z,14.65
2019-03-24T11:51:12.429Z,14.61
2019-03-24T11:53:43.732Z,14.69
2019-03-24T11:56:15.037Z,14.85
2019-03-24T11:58:46.503Z,14.88
2019-03-24T12:01:18.037Z,15.06
2019-03-24T12:03:49.435Z,15.14
2019-03-24T12:06:20.722Z,15.28
2019-03-24T12:08:52.012Z,15.34
2019-03-24T12:11:23.418Z,15.52
2019-03-24T12:13:54.721Z,15.62
2019-03-24T12:16:26.014Z,15.53
2019-03-24T12:18:57.298Z,15.40
2019-03-24T12:21:28.676Z,15.41
2019-03-24T12:23:59.860Z,15.50
2019-03-24T12:26:31.163Z,15.62
2019-03-24T12:29:02.446Z,15.62
2019-03-24T12:31:33.769Z,15.72
2019-03-24T12:34:05.152Z,16.00
2019-03-24T12:36:36.639Z,16.02
2019-03-24T12:39:08.673Z,16.15
2019-03-24T12:41:40.051Z,16.13
2019-03-24T12:44:11.523Z,16.35
2019-03-24T12:46:42.811Z,16.32
2019-03-24T12:49:14.407Z,16.50
2019-03-24T12:51:45.811Z,16.50
2019-03-24T12:54:17.106Z,16.34
2019-03-24T12:56:49.448Z,16.48
2019-03-24T12:59:20.756Z,16.56
2019-03-24T13:01:52.931Z,16.48
2019-03-24T13:04:24.499Z,16.41
2019-03-24T13:06:56.771Z,16.35
2019-03-24T13:09:28.996Z,16.60
2019-03-24T13:12:00.388Z,16.57
2019-03-24T13:14:31.586Z,16.69
2019-03-24T13:17:02.995Z,16.83
2019-03-24T13:19:36.151Z,16.79
2019-03-24T13:22:07.727Z,16.85
2019-03-24T13:24:40.302Z,16.78
2019-03-24T13:27:11.646Z,16.88
2019-03-24T13:29:43.124Z,16.91
2019-03-24T13:32:16.565Z,16.94
2019-03-24T13:34:47.905Z,16.94
2019-03-24T13:37:19.298Z,17.12
2019-03-24T13:39:50.598Z,16.98
2019-03-24T13:42:21.935Z,17.01
2019-03-24T13:44:53.352Z,16.99
2019-03-24T13:47:24.804Z,17.25
2019-03-24T13:49:56.055Z,17.26
2019-03-24T13:52:27.712Z,17.20
2019-03-24T13:54:59.039Z,17.38
2019-03-24T13:57:30.941Z,17.37
2019-03-24T14:00:02.350Z,17.34
2019-03-24T14:02:35.288Z,17.40
2019-03-24T14:05:06.788Z,17.39
2019-03-24T14:07:38.310Z,17.39
2019-03-24T14:10:09.966Z,17.62
2019-03-24T14:12:41.446Z,17.65
2019-03-24T14:15:12.787Z,17.55
2019-03-24T14:17:43.992Z,17.68
2019-03-24T14:20:15.490Z,17.88
2019-03-24T14:22:46.928Z,17.76
2019-03-24T14:25:18.335Z,17.84
2019-03-24T14:27:49.639Z,17.76
2019-03-24T14:30:30.480Z,17.80
2019-03-24T14:33:01.812Z,17.92
2019-03-24T14:35:33.104Z,17.98
2019-03-24T14:38:04.626Z,17.92
2019-03-24T14:40:36.020Z,17.87
2019-03-24T14:43:07.526Z,17.95
2019-03-24T14:45:38.920Z,18.01
2019-03-24T14:48:10.208Z,17.84
2019-03-24T14:50:41.597Z,17.92
2019-03-24T14:53:13.007Z,18.08
2019-03-24T14:55:44.408Z,18.19
2019-03-24T14:58:16.830Z,18.05
2019-03-24T15:00:48.270Z,18.12
2019-03-24T15:03:19.690Z,18.09
2019-03-24T15:05:51.070Z,18.00
2019-03-24T15:08:22.487Z,18.06
2019-03-24T15:10:53.823Z,18.00
2019-03-24T15:13:25.187Z,17.94
2019-03-24T15:15:56.650Z,17.76
2019-03-24T15:18:28.085Z,17.82
2019-03-24T15:21:05.483Z,17.95
2019-03-24T15:23:32.766Z,17.85
2019-03-24T15:26:04.165Z,17.64
2019-03-24T15:28:35.560Z,17.47
2019-03-24T15:31:06.979Z,17.51
2019-03-24T15:33:38.357Z,17.53
2019-03-24T15:36:09.836Z,17.58
2019-03-24T15:38:41.318Z,17.50
2019-03-24T15:41:12.741Z,17.49
2019-03-24T15:43:44.118Z,17.33
2019-03-24T15:46:15.528Z,17.16
2019-03-24T15:48:46.836Z,17.02
2019-03-24T15:51:18.120Z,17.10
2019-03-24T15:53:50.443Z,17.18
2019-03-24T15:56:21.923Z,17.17
2019-03-24T15:58:53.252Z,16.92
2019-03-24T16:01:24.719Z,16.76
2019-03-24T16:03:56.380Z,16.83
2019-03-24T16:06:27.889Z,16.74
2019-03-24T16:08:59.492Z,16.58
2019-03-24T16:11:30.895Z,16.69
2019-03-24T16:14:03.366Z,16.50
2019-03-24T16:16:34.740Z,16.47
2019-03-24T16:19:06.037Z,16.47
2019-03-24T16:21:37.315Z,16.36
2019-03-24T16:24:08.570Z,16.41
2019-03-24T16:26:39.872Z,16.40
2019-03-24T16:29:11.180Z,16.26
2019-03-24T16:31:42.498Z,16.20
2019-03-24T16:34:14.914Z,16.13
2019-03-24T16:36:46.320Z,16.16
2019-03-24T16:39:17.608Z,16.09
2019-03-24T16:41:49.028Z,16.07
2019-03-24T16:44:20.300Z,16.04
2019-03-24T16:46:51.624Z,15.99
2019-03-24T16:49:23.088Z,15.95
2019-03-24T16:51:54.434Z,15.89
2019-03-24T16:54:25.768Z,15.80
2019-03-24T16:56:57.360Z,15.78
2019-03-24T16:59:28.666Z,15.66
2019-03-24T17:01:59.960Z,15.62
2019-03-24T17:04:31.254Z,15.56
2019-03-24T17:07:02.659Z,15.56
2019-03-24T17:09:33.955Z,15.51
2019-03-24T17:12:05.332Z,15.40
2019-03-24T17:14:37.468Z,15.34
2019-03-24T17:17:11.362Z,15.28
2019-03-24T17:19:41.700Z,15.26
2019-03-24T17:22:14.220Z,15.18
2019-03-24T17:24:45.520Z,15.12
2019-03-24T17:27:16.768Z,15.00
2019-03-24T17:29:48.160Z,14.96
2019-03-24T17:32:19.462Z,14.90
2019-03-24T17:34:50.881Z,14.80
2019-03-24T17:37:22.263Z,14.71
2019-03-24T17:39:53.658Z,14.66
2019-03-24T17:42:25.004Z,14.61
2019-03-24T17:44:56.436Z,14.52
2019-03-24T17:47:27.897Z,14.44
2019-03-24T17:49:59.326Z,14.38
2019-03-24T17:52:30.714Z,14.25
2019-03-24T17:55:01.921Z,14.20
2019-03-24T17:57:33.387Z,14.14
2019-03-24T18:00:05.672Z,14.12
2019-03-24T18:02:38.170Z,14.05
2019-03-24T18:05:10.064Z,13.99
2019-03-24T18:07:41.719Z,13.78
2019-03-24T18:10:13.479Z,13.68
2019-03-24T18:12:44.772Z,13.37
2019-03-24T18:15:16.185Z,12.98
2019-03-24T18:17:47.948Z,12.78
2019-03-24T18:20:40.391Z,12.75
2019-03-24T18:23:11.876Z,12.57
2019-03-24T18:25:43.216Z,12.43
2019-03-24T18:28:14.637Z,12.23
2019-03-24T18:30:45.933Z,12.17
2019-03-24T18:33:17.227Z,12.16
2019-03-24T18:35:48.732Z,12.20
2019-03-24T18:38:20.034Z,12.21
2019-03-24T18:40:51.524Z,12.01
2019-03-24T18:43:24.768Z,11.93
2019-03-24T18:45:56.148Z,11.79
2019-03-24T18:48:27.979Z,11.71
2019-03-24T18:50:59.319Z,11.76
2019-03-24T18:53:30.625Z,11.80
2019-03-24T18:56:02.094Z,11.70
2019-03-24T18:58:33.514Z,11.60
2019-03-24T19:01:04.920Z,11.60
2019-03-24T19:03:36.217Z,11.58
2019-03-24T19:06:07.623Z,11.56
2019-03-24T19:08:39.231Z,11.50
2019-03-24T19:11:10.887Z,11.59
2019-03-24T19:13:42.387Z,11.63
2019-03-24T19:16:13.823Z,11.66
2019-03-24T19:18:48.400Z,11.62
2019-03-24T19:21:19.695Z,11.57
2019-03-24T19:23:51.101Z,11.54
2019-03-24T19:26:22.402Z,11.50
2019-03-24T19:28:53.753Z,11.47
2019-03-24T19:31:25.231Z,11.52
2019-03-24T19:33:57.040Z,11.62
2019-03-24T19:36:28.643Z,11.72
2019-03-24T19:39:00.466Z,11.79
2019-03-24T19:41:33.396Z,11.92
2019-03-24T19:44:04.799Z,12.02
2019-03-24T19:46:36.209Z,12.09
2019-03-24T19:49:08.516Z,12.13
2019-03-24T19:51:39.828Z,12.07
2019-03-24T19:54:11.017Z,12.05
2019-03-24T19:56:42.417Z,11.97
2019-03-24T19:59:13.878Z,11.85
2019-03-24T20:01:45.261Z,11.75
2019-03-24T20:04:16.548Z,11.50
2019-03-24T20:06:47.871Z,11.28
2019-03-24T20:09:19.242Z,11.09
2019-03-24T20:11:50.714Z,11.04
2019-03-24T20:14:24.045Z,11.04
2019-03-24T20:16:55.232Z,11.02
2019-03-24T20:19:26.540Z,10.96
2019-03-24T20:21:57.932Z,10.95
2019-03-24T20:24:29.240Z,10.99
2019-03-24T20:27:00.540Z,10.99
2019-03-24T20:29:31.832Z,11.00
2019-03-24T20:32:03.140Z,10.98
2019-03-24T20:34:34.528Z,10.91
2019-03-24T20:37:05.992Z,10.91
2019-03-24T20:39:37.489Z,10.99
2019-03-24T20:42:08.794Z,11.02
2019-03-24T20:44:40.169Z,11.09
2019-03-24T20:47:11.482Z,11.06
2019-03-24T20:49:42.784Z,10.98
2019-03-24T20:52:14.078Z,10.98
2019-03-24T20:54:45.862Z,10.94
2019-03-24T20:57:17.203Z,10.82
2019-03-24T20:59:48.668Z,10.72
2019-03-24T21:02:20.089Z,10.57
2019-03-24T21:04:51.680Z,10.53
2019-03-24T21:07:23.092Z,10.46
2019-03-24T21:09:54.468Z,10.37
2019-03-24T21:12:25.849Z,10.23
2019-03-24T21:14:57.225Z,10.13
2019-03-24T21:17:28.825Z,10.10
2019-03-24T21:20:00.129Z,10.11
2019-03-24T21:22:31.542Z,10.11
2019-03-24T21:25:04.181Z,10.07
2019-03-24T21:27:35.506Z,10.04
2019-03-24T21:30:08.395Z,9.87
2019-03-24T21:32:39.683Z,9.78
2019-03-24T21:35:11.188Z,9.55
2019-03-24T21:37:42.582Z,9.64
2019-03-24T21:40:14.253Z,9.59
2019-03-24T21:42:47.676Z,9.64
2019-03-24T21:45:19.071Z,9.44
2019-03-24T21:47:50.859Z,9.36
2019-03-24T21:50:22.246Z,9.43
2019-03-24T21:52:53.736Z,9.42
2019-03-24T21:55:25.049Z,9.45
2019-03-24T21:57:57.693Z,9.36
2019-03-24T22:00:36.232Z,9.37
2019-03-24T22:03:08.357Z,9.28
2019-03-24T22:05:39.780Z,9.23
2019-03-24T22:08:11.160Z,8.99
2019-03-24T22:10:42.687Z,8.90
2019-03-24T22:13:14.113Z,8.91
2019-03-24T22:15:45.448Z,8.96
2019-03-24T22:18:16.806Z,9.04
2019-03-24T22:20:49.296Z,8.89
2019-03-24T22:23:20.864Z,8.90
2019-03-24T22:25:51.954Z,8.96
2019-03-24T22:28:23.260Z,8.98
2019-03-24T22:30:54.570Z,8.94
2019-03-24T22:33:25.975Z,8.86
2019-03-24T22:35:57.471Z,8.73
2019-03-24T22:38:29.083Z,8.56
2019-03-24T22:41:00.476Z,8.55
2019-03-24T22:43:32.161Z,8.65
2019-03-24T22:46:04.606Z,8.64
2019-03-24T22:48:35.915Z,8.66
2019-03-24T22:51:07.302Z,8.64
2019-03-24T22:53:38.707Z,8.59
2019-03-24T22:56:10.094Z,8.46
2019-03-24T22:58:41.509Z,8.52
2019-03-24T23:01:13.447Z,8.50
2019-03-24T23:03:44.860Z,8.23
2019-03-24T23:06:16.151Z,8.16
2019-03-24T23:08:47.557Z,8.23
2019-03-24T23:11:18.856Z,8.24
2019-03-24T23:13:50.166Z,8.29
2019-03-24T23:16:22.669Z,8.17
2019-03-24T23:18:54.011Z,8.17
2019-03-24T23:21:25.331Z,8.26
2019-03-24T23:23:56.731Z,8.25
2019-03-24T23:26:28.031Z,8.24
2019-03-24T23:28:59.528Z,8.26
2019-03-24T23:31:30.939Z,8.25
2019-03-24T23:34:02.311Z,8.19
2019-03-24T23:36:33.631Z,8.09
2019-03-24T23:39:05.663Z,8.07
2019-03-24T23:41:36.995Z,8.04
2019-03-24T23:44:08.276Z,8.04
2019-03-24T23:46:39.707Z,8.03
2019-03-24T23:49:11.098Z,7.94
2019-03-24T23:51:42.559Z,7.78
2019-03-24T23:54:13.877Z,7.81
2019-03-24T23:56:45.348Z,7.98
2019-03-24T23:59:16.715Z,8.11
